Denver, CO (80212)

11:19 MDT le 29 Mars 2015 (GMT -0600)
NW Denver | | Change Station
CLOSE
Current Station
Stations météorologiques personnelles
Location: Denver, CO
Altitude: 5384 ft
Stations météo à proximité

Alt. 5384 ft 39.78 °N, 105.04 °W | Updated 8 seconds ago

Ciel dégagé
Ciel dégagé
55.5 ° F
Paraît 55.5 ° F
N
1.0
Vent Variable Vent de ESE
Gusts 0.0 mph

Aujourd'hui
Haut(e) -- | Bas -- ° F
--% Risque de précip.
Hier
Haut(e) -- | Bas -- ° F
Precip. -- pouce
6:49 AM 7:21 PM
Lune gibbeuse croissante, 73% visible
Pression 30.26 pouce
Visibilité 10.0 Miles terrestres
Nuages Peu 22000 ft
Point de rosée 24 ° F
Humidité 29%
Précipitations 0.00 pouce
Profondeur de la couche neigeuse Non disponible.
UV 6 sur 12
Pollen 10.60 sur 12
Qualité de l'air Non disponible.
Flu Activity Non disponible.
METAR KAPA 291653Z 08006KT 10SM FEW220 09/M07 A3035 RMK AO2 SLP247 T00891067

More Conditions Fewer Conditions

Pression 30.26 pouce
Visibilité 10.0 Miles terrestres
Nuages Peu 22000 ft
Point de rosée 24 ° F
Humidité 29%
Précipitations 0.00 pouce
Profondeur de la couche neigeuse Non disponible.
UV 6 sur 12
Pollen 10.60 sur 12
Qualité de l'air Non disponible.
Flu Activity Non disponible.
METAR KAPA 291653Z 08006KT 10SM FEW220 09/M07 A3035 RMK AO2 SLP247 T00891067

More Conditions Fewer Conditions

10-Day Weather Forecast

Almanac

Astronomie

Mar. 29, 2015 Lever Coucher
Temps réel
Crépuscule civil
Crépuscule nautique
Crépuscule astronomique
Lune
Durée de lumière visible
Longueur du jour
Tomorrow will be .
, % of the Moon is Illuminated

Extrêmes aujourd'hui

State Highs State Lows

Community

WunderPhotos

Upload Photos

1,809,301 Photos téléchargées !

WunderBlogs® & News

Nearby

Qualité de l'air

  Qualité de l'air Indice de la qualité de l'air Polluant
Not available.

Épaisseur de neige

Station Depth Altitude

Activité sismique

Ville Distance Mag. Time & Date
Minimum magnitude displayed is 2.5.

Températures des eaux côtières

Lieu Température

Stations

Stations météo à proximité

Emplacement de la station Température Refroidissement éolien Point de rosée Humidité Vent Precip. Alt. Mise à jour Type